Wuhan, China
Current Conditions -  °F | °C
As of 3:00 PM on Tuesday 21 Oct 2014 (Local Time) from ZHHH Reporting Station
Scattered Clouds Scattered Clouds  
Wind Chill: 68°   Ceiling: Unl
Heat Index: 68°   Visibility: 4mi
Dew Point: 59°   Wind: 7mph
Humidity: 73%   Direction: 30°NNE
Pressure: 30.15"   Gusts: NA
Location:  30.58°N, 114.27°E
Report Text: ZHHH 210700Z 03003MPS 350V080 7000 SCT030 20/15 Q1021 NOSIG
Loading
Personal Weather Stations






























Interactive Weather Map
Tropical Storm Tracking
New forecast layout! Learn more

10-Day Weather Forecast

Advertisements
Track Severe Weather on mobile